sensor_id;sensor_type;location;lat;lon;timestamp;temperature;humidity
59999;DHT22;45859;51.378;6.736;2022-11-14T00:00:09;4.20;99.90
59999;DHT22;45859;51.378;6.736;2022-11-14T00:02:36;4.20;99.90
59999;DHT22;45859;51.378;6.736;2022-11-14T00:05:02;4.10;99.90
59999;DHT22;45859;51.378;6.736;2022-11-14T00:07:31;4.30;99.90
59999;DHT22;45859;51.378;6.736;2022-11-14T00:09:57;4.20;99.90
59999;DHT22;45859;51.378;6.736;2022-11-14T00:12:23;4.30;99.90
59999;DHT22;45859;51.378;6.736;2022-11-14T00:14:48;4.30;99.90
59999;DHT22;45859;51.378;6.736;2022-11-14T00:17:14;4.30;99.90
59999;DHT22;45859;51.378;6.736;2022-11-14T00:19:39;4.40;99.90
59999;DHT22;45859;51.378;6.736;2022-11-14T00:22:05;4.20;99.90
59999;DHT22;45859;51.378;6.736;2022-11-14T00:24:31;4.20;99.90
59999;DHT22;45859;51.378;6.736;2022-11-14T00:26:57;4.90;99.90
59999;DHT22;45859;51.378;6.736;2022-11-14T00:29:22;4.10;99.90
59999;DHT22;45859;51.378;6.736;2022-11-14T00:31:48;4.10;99.90
59999;DHT22;45859;51.378;6.736;2022-11-14T00:34:13;4.10;99.90
59999;DHT22;45859;51.378;6.736;2022-11-14T00:36:39;4.10;99.90
59999;DHT22;45859;51.378;6.736;2022-11-14T00:39:05;4.10;99.90
59999;DHT22;45859;51.378;6.736;2022-11-14T00:41:30;4.20;99.90
59999;DHT22;45859;51.378;6.736;2022-11-14T00:43:56;4.10;99.90
59999;DHT22;45859;51.378;6.736;2022-11-14T00:46:21;4.20;99.90
59999;DHT22;45859;51.378;6.736;2022-11-14T00:48:47;4.30;99.90
59999;DHT22;45859;51.378;6.736;2022-11-14T00:51:12;4.30;99.90
59999;DHT22;45859;51.378;6.736;2022-11-14T00:53:38;4.40;99.90
59999;DHT22;45859;51.378;6.736;2022-11-14T00:56:04;4.40;99.90
59999;DHT22;45859;51.378;6.736;2022-11-14T00:58:30;4.40;99.90
59999;DHT22;45859;51.378;6.736;2022-11-14T01:00:55;4.30;99.90
59999;DHT22;45859;51.378;6.736;2022-11-14T01:03:21;4.10;99.90
59999;DHT22;45859;51.378;6.736;2022-11-14T01:05:49;4.10;99.90
59999;DHT22;45859;51.378;6.736;2022-11-14T01:08:16;4.00;99.90
59999;DHT22;45859;51.378;6.736;2022-11-14T01:10:47;3.90;99.90
59999;DHT22;45859;51.378;6.736;2022-11-14T01:13:14;3.80;99.90
59999;DHT22;45859;51.378;6.736;2022-11-14T01:15:41;3.80;99.90
59999;DHT22;45859;51.378;6.736;2022-11-14T01:18:10;3.70;99.90
59999;DHT22;45859;51.378;6.736;2022-11-14T01:20:38;3.80;99.90
59999;DHT22;45859;51.378;6.736;2022-11-14T01:23:05;3.70;99.90
59999;DHT22;45859;51.378;6.736;2022-11-14T01:25:33;3.70;99.90
59999;DHT22;45859;51.378;6.736;2022-11-14T01:27:58;3.60;99.90
59999;DHT22;45859;51.378;6.736;2022-11-14T01:30:24;3.60;99.90
59999;DHT22;45859;51.378;6.736;2022-11-14T01:32:50;3.70;99.90
59999;DHT22;45859;51.378;6.736;2022-11-14T01:35:16;3.80;99.90
59999;DHT22;45859;51.378;6.736;2022-11-14T01:37:41;3.70;99.90
59999;DHT22;45859;51.378;6.736;2022-11-14T01:40:07;3.70;99.90
59999;DHT22;45859;51.378;6.736;2022-11-14T01:42:33;3.60;99.90
59999;DHT22;45859;51.378;6.736;2022-11-14T01:44:58;3.60;99.90
59999;DHT22;45859;51.378;6.736;2022-11-14T01:47:29;3.50;99.90
59999;DHT22;45859;51.378;6.736;2022-11-14T01:50:01;3.50;99.90
59999;DHT22;45859;51.378;6.736;2022-11-14T01:52:37;3.40;99.90
59999;DHT22;45859;51.378;6.736;2022-11-14T01:55:06;3.40;99.90
59999;DHT22;45859;51.378;6.736;2022-11-14T01:57:36;3.30;99.90
59999;DHT22;45859;51.378;6.736;2022-11-14T02:00:06;3.30;99.90
59999;DHT22;45859;51.378;6.736;2022-11-14T02:02:33;3.30;99.90
59999;DHT22;45859;51.378;6.736;2022-11-14T02:05:05;3.30;99.90
59999;DHT22;45859;51.378;6.736;2022-11-14T02:07:39;3.30;99.90
59999;DHT22;45859;51.378;6.736;2022-11-14T02:10:08;3.20;99.90
59999;DHT22;45859;51.378;6.736;2022-11-14T02:12:35;3.20;99.90
59999;DHT22;45859;51.378;6.736;2022-11-14T02:15:01;3.10;99.90
59999;DHT22;45859;51.378;6.736;2022-11-14T02:17:27;3.20;99.90
59999;DHT22;45859;51.378;6.736;2022-11-14T02:22:24;3.00;99.90
59999;DHT22;45859;51.378;6.736;2022-11-14T02:24:50;3.00;99.90
59999;DHT22;45859;51.378;6.736;2022-11-14T02:27:15;3.00;99.90
59999;DHT22;45859;51.378;6.736;2022-11-14T02:29:41;3.10;99.90
59999;DHT22;45859;51.378;6.736;2022-11-14T02:32:07;3.10;99.90
59999;DHT22;45859;51.378;6.736;2022-11-14T02:34:33;3.10;99.90
59999;DHT22;45859;51.378;6.736;2022-11-14T02:36:58;3.10;99.90
59999;DHT22;45859;51.378;6.736;2022-11-14T02:39:24;3.20;99.90
59999;DHT22;45859;51.378;6.736;2022-11-14T02:41:50;3.20;99.90
59999;DHT22;45859;51.378;6.736;2022-11-14T02:44:17;3.10;99.90
59999;DHT22;45859;51.378;6.736;2022-11-14T02:46:42;3.10;99.90
59999;DHT22;45859;51.378;6.736;2022-11-14T02:49:08;3.20;99.90
59999;DHT22;45859;51.378;6.736;2022-11-14T02:51:34;3.10;99.90
59999;DHT22;45859;51.378;6.736;2022-11-14T02:53:59;3.20;99.90
59999;DHT22;45859;51.378;6.736;2022-11-14T02:56:25;3.10;99.90
59999;DHT22;45859;51.378;6.736;2022-11-14T02:58:51;3.10;99.90
59999;DHT22;45859;51.378;6.736;2022-11-14T03:01:16;3.10;99.90
59999;DHT22;45859;51.378;6.736;2022-11-14T03:03:42;3.00;99.90
59999;DHT22;45859;51.378;6.736;2022-11-14T03:06:10;3.00;99.90
59999;DHT22;45859;51.378;6.736;2022-11-14T03:08:36;3.00;99.90
59999;DHT22;45859;51.378;6.736;2022-11-14T03:11:06;3.00;99.90
59999;DHT22;45859;51.378;6.736;2022-11-14T03:13:32;3.00;99.90
59999;DHT22;45859;51.378;6.736;2022-11-14T03:16:04;3.00;99.90
59999;DHT22;45859;51.378;6.736;2022-11-14T03:18:29;3.00;99.90
59999;DHT22;45859;51.378;6.736;2022-11-14T03:20:55;3.00;99.90
59999;DHT22;45859;51.378;6.736;2022-11-14T03:23:20;3.00;99.90
59999;DHT22;45859;51.378;6.736;2022-11-14T03:25:46;3.00;99.90
59999;DHT22;45859;51.378;6.736;2022-11-14T03:28:12;3.00;99.90
59999;DHT22;45859;51.378;6.736;2022-11-14T03:30:37;3.00;99.90
59999;DHT22;45859;51.378;6.736;2022-11-14T03:33:03;3.00;99.90
59999;DHT22;45859;51.378;6.736;2022-11-14T03:35:29;3.10;99.90
59999;DHT22;45859;51.378;6.736;2022-11-14T03:37:54;3.20;99.90
59999;DHT22;45859;51.378;6.736;2022-11-14T03:40:20;3.20;99.90
59999;DHT22;45859;51.378;6.736;2022-11-14T03:42:46;3.10;99.90
59999;DHT22;45859;51.378;6.736;2022-11-14T03:45:11;3.10;99.90
59999;DHT22;45859;51.378;6.736;2022-11-14T03:47:37;3.10;99.90
59999;DHT22;45859;51.378;6.736;2022-11-14T03:50:03;3.00;99.90
59999;DHT22;45859;51.378;6.736;2022-11-14T03:52:29;3.00;99.90
59999;DHT22;45859;51.378;6.736;2022-11-14T03:54:54;3.00;99.90
59999;DHT22;45859;51.378;6.736;2022-11-14T03:57:20;3.00;99.90
59999;DHT22;45859;51.378;6.736;2022-11-14T03:59:46;3.00;99.90
59999;DHT22;45859;51.378;6.736;2022-11-14T04:02:11;2.90;99.90
59999;DHT22;45859;51.378;6.736;2022-11-14T04:04:37;2.90;99.90
59999;DHT22;45859;51.378;6.736;2022-11-14T04:07:02;2.80;99.90
59999;DHT22;45859;51.378;6.736;2022-11-14T04:09:28;2.90;99.90
59999;DHT22;45859;51.378;6.736;2022-11-14T04:11:54;2.90;99.90
59999;DHT22;45859;51.378;6.736;2022-11-14T04:14:19;2.90;99.90
59999;DHT22;45859;51.378;6.736;2022-11-14T04:16:45;2.90;99.90
59999;DHT22;45859;51.378;6.736;2022-11-14T04:19:11;2.90;99.90
59999;DHT22;45859;51.378;6.736;2022-11-14T04:21:36;2.80;99.90
59999;DHT22;45859;51.378;6.736;2022-11-14T04:24:02;2.80;99.90
59999;DHT22;45859;51.378;6.736;2022-11-14T04:26:28;2.90;99.90
59999;DHT22;45859;51.378;6.736;2022-11-14T04:28:54;2.90;99.90
59999;DHT22;45859;51.378;6.736;2022-11-14T04:31:20;2.90;99.90
59999;DHT22;45859;51.378;6.736;2022-11-14T04:33:45;3.00;99.90
59999;DHT22;45859;51.378;6.736;2022-11-14T04:36:11;2.90;99.90
59999;DHT22;45859;51.378;6.736;2022-11-14T04:38:37;2.90;99.90
59999;DHT22;45859;51.378;6.736;2022-11-14T04:41:03;2.90;99.90
59999;DHT22;45859;51.378;6.736;2022-11-14T04:43:29;2.90;99.90
59999;DHT22;45859;51.378;6.736;2022-11-14T04:45:55;2.90;99.90
59999;DHT22;45859;51.378;6.736;2022-11-14T04:48:21;2.90;99.90
59999;DHT22;45859;51.378;6.736;2022-11-14T04:50:46;2.90;99.90
59999;DHT22;45859;51.378;6.736;2022-11-14T04:55:43;2.80;99.90
59999;DHT22;45859;51.378;6.736;2022-11-14T04:58:09;2.90;99.90
59999;DHT22;45859;51.378;6.736;2022-11-14T05:00:35;2.90;99.90
59999;DHT22;45859;51.378;6.736;2022-11-14T05:03:00;2.90;99.90
59999;DHT22;45859;51.378;6.736;2022-11-14T05:05:26;2.80;99.90
59999;DHT22;45859;51.378;6.736;2022-11-14T05:07:53;2.90;99.90
59999;DHT22;45859;51.378;6.736;2022-11-14T05:10:19;2.90;99.90
59999;DHT22;45859;51.378;6.736;2022-11-14T05:12:44;2.90;99.90
59999;DHT22;45859;51.378;6.736;2022-11-14T05:15:10;2.90;99.90
59999;DHT22;45859;51.378;6.736;2022-11-14T05:17:36;2.90;99.90
59999;DHT22;45859;51.378;6.736;2022-11-14T05:20:02;3.20;99.90
59999;DHT22;45859;51.378;6.736;2022-11-14T05:22:27;3.30;99.90
59999;DHT22;45859;51.378;6.736;2022-11-14T05:24:53;3.30;99.90
59999;DHT22;45859;51.378;6.736;2022-11-14T05:27:19;3.40;99.90
59999;DHT22;45859;51.378;6.736;2022-11-14T05:29:45;3.50;99.90
59999;DHT22;45859;51.378;6.736;2022-11-14T05:32:10;3.70;99.90
59999;DHT22;45859;51.378;6.736;2022-11-14T05:34:37;3.90;99.90
59999;DHT22;45859;51.378;6.736;2022-11-14T05:37:02;4.00;99.90
59999;DHT22;45859;51.378;6.736;2022-11-14T05:39:28;4.20;99.90
59999;DHT22;45859;51.378;6.736;2022-11-14T05:41:54;4.20;99.90
59999;DHT22;45859;51.378;6.736;2022-11-14T05:44:20;4.10;99.90
59999;DHT22;45859;51.378;6.736;2022-11-14T05:46:45;4.10;99.90
59999;DHT22;45859;51.378;6.736;2022-11-14T05:49:11;4.10;99.90
59999;DHT22;45859;51.378;6.736;2022-11-14T05:51:37;4.00;99.90
59999;DHT22;45859;51.378;6.736;2022-11-14T05:54:02;3.90;99.90
59999;DHT22;45859;51.378;6.736;2022-11-14T05:56:28;3.80;99.90
59999;DHT22;45859;51.378;6.736;2022-11-14T05:58:54;3.80;99.90
59999;DHT22;45859;51.378;6.736;2022-11-14T06:01:20;3.70;99.90
59999;DHT22;45859;51.378;6.736;2022-11-14T06:03:46;3.60;99.90
59999;DHT22;45859;51.378;6.736;2022-11-14T06:06:15;3.60;99.90
59999;DHT22;45859;51.378;6.736;2022-11-14T06:08:42;3.50;99.90
59999;DHT22;45859;51.378;6.736;2022-11-14T06:11:22;3.50;99.90
59999;DHT22;45859;51.378;6.736;2022-11-14T06:13:48;3.50;99.90
59999;DHT22;45859;51.378;6.736;2022-11-14T06:16:18;3.40;99.90
59999;DHT22;45859;51.378;6.736;2022-11-14T06:18:44;3.30;99.90
59999;DHT22;45859;51.378;6.736;2022-11-14T06:21:14;3.30;99.90
59999;DHT22;45859;51.378;6.736;2022-11-14T06:23:41;3.20;99.90
59999;DHT22;45859;51.378;6.736;2022-11-14T06:26:20;3.20;99.90
59999;DHT22;45859;51.378;6.736;2022-11-14T06:28:47;3.10;99.90
59999;DHT22;45859;51.378;6.736;2022-11-14T06:31:14;3.10;99.90
59999;DHT22;45859;51.378;6.736;2022-11-14T06:33:39;3.00;99.90
59999;DHT22;45859;51.378;6.736;2022-11-14T06:36:06;3.00;99.90
59999;DHT22;45859;51.378;6.736;2022-11-14T06:38:37;3.00;99.90
59999;DHT22;45859;51.378;6.736;2022-11-14T06:41:07;3.00;99.90
59999;DHT22;45859;51.378;6.736;2022-11-14T06:43:34;3.00;99.90
59999;DHT22;45859;51.378;6.736;2022-11-14T06:46:00;3.00;99.90
59999;DHT22;45859;51.378;6.736;2022-11-14T06:48:25;3.00;99.90
59999;DHT22;45859;51.378;6.736;2022-11-14T06:50:53;1.90;99.90
59999;DHT22;45859;51.378;6.736;2022-11-14T06:53:19;3.00;99.90
59999;DHT22;45859;51.378;6.736;2022-11-14T06:55:59;3.10;99.90
59999;DHT22;45859;51.378;6.736;2022-11-14T06:58:27;3.00;99.90
59999;DHT22;45859;51.378;6.736;2022-11-14T07:00:53;3.20;99.90
59999;DHT22;45859;51.378;6.736;2022-11-14T07:03:19;3.30;99.90
59999;DHT22;45859;51.378;6.736;2022-11-14T07:05:45;3.30;99.90
59999;DHT22;45859;51.378;6.736;2022-11-14T07:08:11;3.30;99.90
59999;DHT22;45859;51.378;6.736;2022-11-14T07:10:36;3.40;99.90
59999;DHT22;45859;51.378;6.736;2022-11-14T07:13:02;3.50;99.90
59999;DHT22;45859;51.378;6.736;2022-11-14T07:15:28;3.40;99.90
59999;DHT22;45859;51.378;6.736;2022-11-14T07:17:54;3.50;99.90
59999;DHT22;45859;51.378;6.736;2022-11-14T07:20:19;3.50;99.90
59999;DHT22;45859;51.378;6.736;2022-11-14T07:22:45;3.70;99.90
59999;DHT22;45859;51.378;6.736;2022-11-14T07:25:12;3.60;99.90
59999;DHT22;45859;51.378;6.736;2022-11-14T07:27:38;3.70;99.90
59999;DHT22;45859;51.378;6.736;2022-11-14T07:30:04;3.70;99.90
59999;DHT22;45859;51.378;6.736;2022-11-14T07:32:30;3.80;99.90
59999;DHT22;45859;51.378;6.736;2022-11-14T07:34:56;3.80;99.90
59999;DHT22;45859;51.378;6.736;2022-11-14T07:37:21;4.00;99.90
59999;DHT22;45859;51.378;6.736;2022-11-14T07:39:47;4.10;99.90
59999;DHT22;45859;51.378;6.736;2022-11-14T07:42:13;4.20;99.90
59999;DHT22;45859;51.378;6.736;2022-11-14T07:44:38;4.40;99.90
59999;DHT22;45859;51.378;6.736;2022-11-14T07:47:04;4.60;99.90
59999;DHT22;45859;51.378;6.736;2022-11-14T07:49:30;4.80;99.90
59999;DHT22;45859;51.378;6.736;2022-11-14T07:51:55;5.20;99.90
59999;DHT22;45859;51.378;6.736;2022-11-14T07:54:21;5.40;99.90
59999;DHT22;45859;51.378;6.736;2022-11-14T07:56:47;5.80;99.90
59999;DHT22;45859;51.378;6.736;2022-11-14T07:59:13;6.10;99.90
59999;DHT22;45859;51.378;6.736;2022-11-14T08:01:38;6.40;99.90
59999;DHT22;45859;51.378;6.736;2022-11-14T08:04:04;6.50;99.90
59999;DHT22;45859;51.378;6.736;2022-11-14T08:06:30;6.60;99.90
59999;DHT22;45859;51.378;6.736;2022-11-14T08:08:56;6.80;99.90
59999;DHT22;45859;51.378;6.736;2022-11-14T08:11:21;6.90;99.90
59999;DHT22;45859;51.378;6.736;2022-11-14T08:14:07;7.00;99.90
59999;DHT22;45859;51.378;6.736;2022-11-14T08:16:33;7.20;99.90
59999;DHT22;45859;51.378;6.736;2022-11-14T08:18:59;7.30;99.90
59999;DHT22;45859;51.378;6.736;2022-11-14T08:21:25;7.40;99.90
59999;DHT22;45859;51.378;6.736;2022-11-14T08:23:50;7.50;99.90
59999;DHT22;45859;51.378;6.736;2022-11-14T08:26:16;7.60;99.90
59999;DHT22;45859;51.378;6.736;2022-11-14T08:28:42;7.60;99.90
59999;DHT22;45859;51.378;6.736;2022-11-14T08:31:07;7.60;99.90
59999;DHT22;45859;51.378;6.736;2022-11-14T08:33:34;7.70;99.90
59999;DHT22;45859;51.378;6.736;2022-11-14T08:36:01;7.80;99.90
59999;DHT22;45859;51.378;6.736;2022-11-14T08:38:27;7.70;99.90
59999;DHT22;45859;51.378;6.736;2022-11-14T08:40:56;7.80;99.90
59999;DHT22;45859;51.378;6.736;2022-11-14T08:43:22;7.80;99.90
59999;DHT22;45859;51.378;6.736;2022-11-14T08:45:48;7.70;99.90
59999;DHT22;45859;51.378;6.736;2022-11-14T08:48:14;7.70;99.90
59999;DHT22;45859;51.378;6.736;2022-11-14T08:50:40;7.70;99.90
59999;DHT22;45859;51.378;6.736;2022-11-14T08:53:05;7.70;99.90
59999;DHT22;45859;51.378;6.736;2022-11-14T08:55:31;7.70;99.90
59999;DHT22;45859;51.378;6.736;2022-11-14T08:57:57;7.80;99.90
59999;DHT22;45859;51.378;6.736;2022-11-14T09:00:23;7.80;99.90
59999;DHT22;45859;51.378;6.736;2022-11-14T09:02:48;7.80;99.90
59999;DHT22;45859;51.378;6.736;2022-11-14T09:05:14;7.90;99.90
59999;DHT22;45859;51.378;6.736;2022-11-14T09:07:40;7.80;99.90
59999;DHT22;45859;51.378;6.736;2022-11-14T09:10:06;7.80;99.90
59999;DHT22;45859;51.378;6.736;2022-11-14T09:12:32;7.90;99.90
59999;DHT22;45859;51.378;6.736;2022-11-14T09:14:58;7.90;99.90
59999;DHT22;45859;51.378;6.736;2022-11-14T09:17:24;7.90;99.90
59999;DHT22;45859;51.378;6.736;2022-11-14T09:19:49;7.90;99.90
59999;DHT22;45859;51.378;6.736;2022-11-14T09:22:15;7.90;99.90
59999;DHT22;45859;51.378;6.736;2022-11-14T09:24:41;7.90;99.90
59999;DHT22;45859;51.378;6.736;2022-11-14T09:27:07;7.90;99.90
59999;DHT22;45859;51.378;6.736;2022-11-14T09:29:33;7.90;99.90
59999;DHT22;45859;51.378;6.736;2022-11-14T09:31:59;7.90;99.90
59999;DHT22;45859;51.378;6.736;2022-11-14T09:34:24;7.90;99.90
59999;DHT22;45859;51.378;6.736;2022-11-14T09:36:50;8.00;99.90
59999;DHT22;45859;51.378;6.736;2022-11-14T09:39:16;7.90;99.90
59999;DHT22;45859;51.378;6.736;2022-11-14T09:46:49;7.90;99.90
59999;DHT22;45859;51.378;6.736;2022-11-14T09:49:43;8.00;99.90
59999;DHT22;45859;51.378;6.736;2022-11-14T09:55:13;8.00;99.90
59999;DHT22;45859;51.378;6.736;2022-11-14T09:57:42;8.00;99.90
59999;DHT22;45859;51.378;6.736;2022-11-14T10:00:19;8.10;99.90
59999;DHT22;45859;51.378;6.736;2022-11-14T10:03:15;8.00;99.90
59999;DHT22;45859;51.378;6.736;2022-11-14T10:11:04;8.10;99.90
59999;DHT22;45859;51.378;6.736;2022-11-14T10:16:30;8.10;99.90
59999;DHT22;45859;51.378;6.736;2022-11-14T10:19:40;8.00;99.90
59999;DHT22;45859;51.378;6.736;2022-11-14T10:31:31;8.00;99.90
59999;DHT22;45859;51.378;6.736;2022-11-14T10:34:11;8.00;99.90
59999;DHT22;45859;51.378;6.736;2022-11-14T10:37:00;8.00;99.90
59999;DHT22;45859;51.378;6.736;2022-11-14T10:42:38;8.10;99.90
59999;DHT22;45859;51.378;6.736;2022-11-14T10:47:47;8.20;99.90
59999;DHT22;45859;51.378;6.736;2022-11-14T10:50:18;8.20;99.90
59999;DHT22;45859;51.378;6.736;2022-11-14T10:52:45;8.20;99.90
59999;DHT22;45859;51.378;6.736;2022-11-14T10:55:14;8.20;99.90
59999;DHT22;45859;51.378;6.736;2022-11-14T10:57:42;8.30;99.90
59999;DHT22;45859;51.378;6.736;2022-11-14T11:00:19;8.40;99.90
59999;DHT22;45859;51.378;6.736;2022-11-14T11:02:56;8.50;99.90
59999;DHT22;45859;51.378;6.736;2022-11-14T11:05:24;8.50;99.90
59999;DHT22;45859;51.378;6.736;2022-11-14T11:07:53;8.50;99.90
59999;DHT22;45859;51.378;6.736;2022-11-14T11:10:41;8.50;99.90
59999;DHT22;45859;51.378;6.736;2022-11-14T11:13:46;8.60;99.90
59999;DHT22;45859;51.378;6.736;2022-11-14T11:16:12;8.50;99.90
59999;DHT22;45859;51.378;6.736;2022-11-14T11:18:38;8.50;99.90
59999;DHT22;45859;51.378;6.736;2022-11-14T11:21:10;8.50;99.90
59999;DHT22;45859;51.378;6.736;2022-11-14T11:23:58;8.50;99.90
59999;DHT22;45859;51.378;6.736;2022-11-14T11:26:26;8.60;99.90
59999;DHT22;45859;51.378;6.736;2022-11-14T11:31:55;8.80;99.90
59999;DHT22;45859;51.378;6.736;2022-11-14T11:34:29;8.90;99.90
59999;DHT22;45859;51.378;6.736;2022-11-14T11:39:29;9.10;99.90
59999;DHT22;45859;51.378;6.736;2022-11-14T11:42:00;9.20;99.90
59999;DHT22;45859;51.378;6.736;2022-11-14T11:44:37;9.20;99.90
59999;DHT22;45859;51.378;6.736;2022-11-14T11:47:14;9.30;99.90
59999;DHT22;45859;51.378;6.736;2022-11-14T11:49:46;9.30;99.90
59999;DHT22;45859;51.378;6.736;2022-11-14T11:57:47;9.40;99.90
59999;DHT22;45859;51.378;6.736;2022-11-14T12:00:20;9.60;99.90
59999;DHT22;45859;51.378;6.736;2022-11-14T12:02:49;9.50;99.90
59999;DHT22;45859;51.378;6.736;2022-11-14T12:05:45;9.40;99.90
59999;DHT22;45859;51.378;6.736;2022-11-14T12:10:47;9.40;99.90
59999;DHT22;45859;51.378;6.736;2022-11-14T12:27:36;9.60;99.90
59999;DHT22;45859;51.378;6.736;2022-11-14T12:30:16;9.60;99.90
59999;DHT22;45859;51.378;6.736;2022-11-14T12:33:06;9.60;99.90
59999;DHT22;45859;51.378;6.736;2022-11-14T12:35:35;9.50;99.90
59999;DHT22;45859;51.378;6.736;2022-11-14T12:38:04;9.50;99.90
59999;DHT22;45859;51.378;6.736;2022-11-14T12:40:39;9.50;99.90
59999;DHT22;45859;51.378;6.736;2022-11-14T12:45:58;9.70;99.90
59999;DHT22;45859;51.378;6.736;2022-11-14T12:50:54;9.60;99.90
59999;DHT22;45859;51.378;6.736;2022-11-14T13:01:31;9.50;99.90
59999;DHT22;45859;51.378;6.736;2022-11-14T13:06:56;9.60;99.90
59999;DHT22;45859;51.378;6.736;2022-11-14T13:12:27;9.60;99.90
59999;DHT22;45859;51.378;6.736;2022-11-14T13:21:05;9.60;99.90
59999;DHT22;45859;51.378;6.736;2022-11-14T13:23:53;9.60;99.90
59999;DHT22;45859;51.378;6.736;2022-11-14T13:28:50;9.70;99.90
59999;DHT22;45859;51.378;6.736;2022-11-14T13:34:27;9.70;99.90
59999;DHT22;45859;51.378;6.736;2022-11-14T13:42:39;9.60;99.90
59999;DHT22;45859;51.378;6.736;2022-11-14T13:47:34;9.60;99.90
59999;DHT22;45859;51.378;6.736;2022-11-14T13:52:34;9.60;99.90
59999;DHT22;45859;51.378;6.736;2022-11-14T13:55:05;9.60;99.90
59999;DHT22;45859;51.378;6.736;2022-11-14T14:00:18;9.60;99.90
59999;DHT22;45859;51.378;6.736;2022-11-14T14:06:24;9.60;99.90
59999;DHT22;45859;51.378;6.736;2022-11-14T14:17:42;9.50;99.90
59999;DHT22;45859;51.378;6.736;2022-11-14T14:26:14;9.50;99.90
59999;DHT22;45859;51.378;6.736;2022-11-14T14:31:36;9.50;99.90
59999;DHT22;45859;51.378;6.736;2022-11-14T14:34:17;9.50;99.90
59999;DHT22;45859;51.378;6.736;2022-11-14T14:36:52;9.50;99.90
59999;DHT22;45859;51.378;6.736;2022-11-14T14:39:24;9.50;99.90
59999;DHT22;45859;51.378;6.736;2022-11-14T14:41:51;9.50;99.90
59999;DHT22;45859;51.378;6.736;2022-11-14T14:44:31;9.60;99.90
59999;DHT22;45859;51.378;6.736;2022-11-14T14:46:58;9.60;99.90
59999;DHT22;45859;51.378;6.736;2022-11-14T14:49:30;9.60;99.90
59999;DHT22;45859;51.378;6.736;2022-11-14T14:51:58;9.60;99.90
59999;DHT22;45859;51.378;6.736;2022-11-14T14:54:27;9.60;99.90
59999;DHT22;45859;51.378;6.736;2022-11-14T14:56:58;9.50;99.90
59999;DHT22;45859;51.378;6.736;2022-11-14T14:59:29;9.50;99.90
59999;DHT22;45859;51.378;6.736;2022-11-14T15:01:56;9.50;99.90
59999;DHT22;45859;51.378;6.736;2022-11-14T15:04:29;9.50;99.90
59999;DHT22;45859;51.378;6.736;2022-11-14T15:06:55;9.50;99.90
59999;DHT22;45859;51.378;6.736;2022-11-14T15:09:27;9.50;99.90
59999;DHT22;45859;51.378;6.736;2022-11-14T15:11:58;9.50;99.90
59999;DHT22;45859;51.378;6.736;2022-11-14T15:14:27;9.50;99.90
59999;DHT22;45859;51.378;6.736;2022-11-14T15:16:55;9.50;99.90
59999;DHT22;45859;51.378;6.736;2022-11-14T15:19:26;9.50;99.90
59999;DHT22;45859;51.378;6.736;2022-11-14T15:22:04;9.50;99.90
59999;DHT22;45859;51.378;6.736;2022-11-14T15:24:30;9.40;99.90
59999;DHT22;45859;51.378;6.736;2022-11-14T15:26:56;9.50;99.90
59999;DHT22;45859;51.378;6.736;2022-11-14T15:29:25;9.40;99.90
59999;DHT22;45859;51.378;6.736;2022-11-14T15:32:00;9.40;99.90
59999;DHT22;45859;51.378;6.736;2022-11-14T15:34:35;9.40;99.90
59999;DHT22;45859;51.378;6.736;2022-11-14T15:39:38;9.40;99.90
59999;DHT22;45859;51.378;6.736;2022-11-14T15:44:49;9.40;99.90
59999;DHT22;45859;51.378;6.736;2022-11-14T15:50:23;9.40;99.90
59999;DHT22;45859;51.378;6.736;2022-11-14T15:55:41;9.40;99.90
59999;DHT22;45859;51.378;6.736;2022-11-14T15:58:09;9.40;99.90
59999;DHT22;45859;51.378;6.736;2022-11-14T16:00:35;9.40;99.90
59999;DHT22;45859;51.378;6.736;2022-11-14T16:03:02;9.40;99.90
59999;DHT22;45859;51.378;6.736;2022-11-14T16:05:28;9.40;99.90
59999;DHT22;45859;51.378;6.736;2022-11-14T16:07:56;9.30;99.90
59999;DHT22;45859;51.378;6.736;2022-11-14T16:10:24;9.30;99.90
59999;DHT22;45859;51.378;6.736;2022-11-14T16:12:50;9.40;99.90
59999;DHT22;45859;51.378;6.736;2022-11-14T16:15:16;9.40;99.90
59999;DHT22;45859;51.378;6.736;2022-11-14T16:17:45;9.40;99.90
59999;DHT22;45859;51.378;6.736;2022-11-14T16:20:29;9.30;99.90
59999;DHT22;45859;51.378;6.736;2022-11-14T16:22:56;9.30;99.90
59999;DHT22;45859;51.378;6.736;2022-11-14T16:25:27;9.30;99.90
59999;DHT22;45859;51.378;6.736;2022-11-14T16:27:53;9.30;99.90
59999;DHT22;45859;51.378;6.736;2022-11-14T16:30:20;9.30;99.90
59999;DHT22;45859;51.378;6.736;2022-11-14T16:32:47;9.30;99.90
59999;DHT22;45859;51.378;6.736;2022-11-14T16:35:19;9.30;99.90
59999;DHT22;45859;51.378;6.736;2022-11-14T16:37:45;9.30;99.90
59999;DHT22;45859;51.378;6.736;2022-11-14T16:40:25;9.30;99.90
59999;DHT22;45859;51.378;6.736;2022-11-14T16:42:56;9.20;99.90
59999;DHT22;45859;51.378;6.736;2022-11-14T16:45:22;9.20;99.90
59999;DHT22;45859;51.378;6.736;2022-11-14T16:47:49;9.20;99.90
59999;DHT22;45859;51.378;6.736;2022-11-14T16:50:15;9.20;99.90
59999;DHT22;45859;51.378;6.736;2022-11-14T16:52:41;9.20;99.90
59999;DHT22;45859;51.378;6.736;2022-11-14T16:55:08;9.20;99.90
59999;DHT22;45859;51.378;6.736;2022-11-14T16:57:34;9.20;99.90
59999;DHT22;45859;51.378;6.736;2022-11-14T17:00:06;9.20;99.90
59999;DHT22;45859;51.378;6.736;2022-11-14T17:02:32;9.20;99.90
59999;DHT22;45859;51.378;6.736;2022-11-14T17:04:58;9.10;99.90
59999;DHT22;45859;51.378;6.736;2022-11-14T17:07:23;9.10;99.90
59999;DHT22;45859;51.378;6.736;2022-11-14T17:09:49;9.10;99.90
59999;DHT22;45859;51.378;6.736;2022-11-14T17:12:15;9.10;99.90
59999;DHT22;45859;51.378;6.736;2022-11-14T17:14:40;9.20;99.90
59999;DHT22;45859;51.378;6.736;2022-11-14T17:17:06;9.10;99.90
59999;DHT22;45859;51.378;6.736;2022-11-14T17:19:32;9.10;99.90
59999;DHT22;45859;51.378;6.736;2022-11-14T17:21:57;9.10;99.90
59999;DHT22;45859;51.378;6.736;2022-11-14T17:24:23;9.10;99.90
59999;DHT22;45859;51.378;6.736;2022-11-14T17:26:49;9.10;99.90
59999;DHT22;45859;51.378;6.736;2022-11-14T17:29:14;9.10;99.90
59999;DHT22;45859;51.378;6.736;2022-11-14T17:31:40;9.10;99.90
59999;DHT22;45859;51.378;6.736;2022-11-14T17:34:08;9.10;99.90
59999;DHT22;45859;51.378;6.736;2022-11-14T17:36:34;9.10;99.90
59999;DHT22;45859;51.378;6.736;2022-11-14T17:39:00;9.10;99.90
59999;DHT22;45859;51.378;6.736;2022-11-14T17:41:26;9.10;99.90
59999;DHT22;45859;51.378;6.736;2022-11-14T17:43:55;9.10;99.90
59999;DHT22;45859;51.378;6.736;2022-11-14T17:46:23;9.10;99.90
59999;DHT22;45859;51.378;6.736;2022-11-14T17:48:48;9.10;99.90
59999;DHT22;45859;51.378;6.736;2022-11-14T17:51:15;9.10;99.90
59999;DHT22;45859;51.378;6.736;2022-11-14T17:53:41;9.10;99.90
59999;DHT22;45859;51.378;6.736;2022-11-14T17:56:15;9.10;99.90
59999;DHT22;45859;51.378;6.736;2022-11-14T17:58:42;9.00;99.90
59999;DHT22;45859;51.378;6.736;2022-11-14T18:01:15;9.00;99.90
59999;DHT22;45859;51.378;6.736;2022-11-14T18:03:42;9.10;99.90
59999;DHT22;45859;51.378;6.736;2022-11-14T18:06:12;9.00;99.90
59999;DHT22;45859;51.378;6.736;2022-11-14T18:08:39;9.00;99.90
59999;DHT22;45859;51.378;6.736;2022-11-14T18:11:06;9.10;99.90